sensor_id;sensor_type;location;lat;lon;timestamp;P1;durP1;ratioP1;P2;durP2;ratioP2
52396;SDS011;38322;53.108;6.308;2023-12-20T06:02:02;20.63;;;4.88;;
52396;SDS011;38322;53.108;6.308;2023-12-20T06:04:29;27.88;;;4.47;;
52396;SDS011;38322;53.108;6.308;2023-12-20T06:06:55;32.00;;;8.50;;
52396;SDS011;38322;53.108;6.308;2023-12-20T06:09:20;28.45;;;6.05;;
52396;SDS011;38322;53.108;6.308;2023-12-20T06:11:46;22.33;;;5.70;;
52396;SDS011;38322;53.108;6.308;2023-12-20T06:14:12;32.92;;;5.47;;
52396;SDS011;38322;53.108;6.308;2023-12-20T06:16:38;29.88;;;4.63;;
52396;SDS011;38322;53.108;6.308;2023-12-20T06:19:04;24.30;;;5.10;;
52396;SDS011;38322;53.108;6.308;2023-12-20T06:21:30;31.10;;;5.10;;
52396;SDS011;38322;53.108;6.308;2023-12-20T06:23:56;34.70;;;7.20;;
52396;SDS011;38322;53.108;6.308;2023-12-20T06:26:23;30.20;;;6.20;;
52396;SDS011;38322;53.108;6.308;2023-12-20T06:28:49;26.00;;;6.10;;
52396;SDS011;38322;53.108;6.308;2023-12-20T06:31:15;33.13;;;7.28;;
52396;SDS011;38322;53.108;6.308;2023-12-20T06:33:42;20.30;;;5.45;;
52396;SDS011;38322;53.108;6.308;2023-12-20T06:36:11;33.42;;;4.32;;
52396;SDS011;38322;53.108;6.308;2023-12-20T06:38:38;21.77;;;4.45;;
52396;SDS011;38322;53.108;6.308;2023-12-20T06:41:04;22.42;;;6.15;;
52396;SDS011;38322;53.108;6.308;2023-12-20T06:43:31;29.77;;;6.05;;
52396;SDS011;38322;53.108;6.308;2023-12-20T06:45:57;26.40;;;4.18;;
52396;SDS011;38322;53.108;6.308;2023-12-20T06:48:25;31.08;;;4.45;;
52396;SDS011;38322;53.108;6.308;2023-12-20T06:50:51;34.90;;;5.75;;
52396;SDS011;38322;53.108;6.308;2023-12-20T06:53:17;31.70;;;5.65;;
52396;SDS011;38322;53.108;6.308;2023-12-20T06:55:42;28.17;;;4.25;;
52396;SDS011;38322;53.108;6.308;2023-12-20T06:58:08;26.40;;;7.00;;
52396;SDS011;38322;53.108;6.308;2023-12-20T07:00:34;26.10;;;5.25;;
52396;SDS011;38322;53.108;6.308;2023-12-20T07:03:00;27.15;;;4.95;;
52396;SDS011;38322;53.108;6.308;2023-12-20T07:05:26;22.42;;;4.70;;
52396;SDS011;38322;53.108;6.308;2023-12-20T07:07:52;24.50;;;4.65;;
52396;SDS011;38322;53.108;6.308;2023-12-20T07:10:18;23.60;;;4.72;;
52396;SDS011;38322;53.108;6.308;2023-12-20T07:12:44;29.65;;;4.47;;
52396;SDS011;38322;53.108;6.308;2023-12-20T07:15:10;23.65;;;5.63;;
52396;SDS011;38322;53.108;6.308;2023-12-20T07:17:36;28.17;;;6.75;;
52396;SDS011;38322;53.108;6.308;2023-12-20T07:20:03;18.42;;;4.03;;
52396;SDS011;38322;53.108;6.308;2023-12-20T07:22:30;27.88;;;5.38;;
52396;SDS011;38322;53.108;6.308;2023-12-20T07:24:57;29.67;;;4.93;;
52396;SDS011;38322;53.108;6.308;2023-12-20T07:27:24;33.60;;;5.93;;
52396;SDS011;38322;53.108;6.308;2023-12-20T07:29:50;27.38;;;5.13;;
52396;SDS011;38322;53.108;6.308;2023-12-20T07:32:16;23.30;;;5.00;;
52396;SDS011;38322;53.108;6.308;2023-12-20T07:34:42;34.60;;;5.80;;
52396;SDS011;38322;53.108;6.308;2023-12-20T07:37:08;25.77;;;4.75;;
52396;SDS011;38322;53.108;6.308;2023-12-20T07:39:37;24.67;;;5.78;;
52396;SDS011;38322;53.108;6.308;2023-12-20T07:42:05;20.58;;;5.85;;
52396;SDS011;38322;53.108;6.308;2023-12-20T07:44:31;21.98;;;6.35;;
52396;SDS011;38322;53.108;6.308;2023-12-20T07:46:57;17.50;;;4.18;;
52396;SDS011;38322;53.108;6.308;2023-12-20T07:49:23;20.00;;;5.68;;
52396;SDS011;38322;53.108;6.308;2023-12-20T07:51:49;35.92;;;6.80;;
52396;SDS011;38322;53.108;6.308;2023-12-20T07:54:15;28.83;;;6.45;;
52396;SDS011;38322;53.108;6.308;2023-12-20T07:56:41;26.42;;;4.63;;
52396;SDS011;38322;53.108;6.308;2023-12-20T07:59:07;27.05;;;5.00;;
52396;SDS011;38322;53.108;6.308;2023-12-20T08:01:33;24.58;;;5.45;;
52396;SDS011;38322;53.108;6.308;2023-12-20T08:03:59;31.13;;;5.45;;
52396;SDS011;38322;53.108;6.308;2023-12-20T08:06:25;22.33;;;6.35;;
52396;SDS011;38322;53.108;6.308;2023-12-20T08:08:50;27.83;;;5.25;;
52396;SDS011;38322;53.108;6.308;2023-12-20T08:11:16;25.00;;;5.80;;
52396;SDS011;38322;53.108;6.308;2023-12-20T08:13:42;26.05;;;4.75;;
52396;SDS011;38322;53.108;6.308;2023-12-20T08:16:08;21.58;;;4.45;;
52396;SDS011;38322;53.108;6.308;2023-12-20T08:18:34;26.95;;;5.63;;
52396;SDS011;38322;53.108;6.308;2023-12-20T08:21:00;16.25;;;3.25;;
52396;SDS011;38322;53.108;6.308;2023-12-20T08:23:26;12.93;;;3.38;;
52396;SDS011;38322;53.108;6.308;2023-12-20T08:25:52;8.20;;;2.00;;
52396;SDS011;38322;53.108;6.308;2023-12-20T08:28:18;7.43;;;2.17;;
52396;SDS011;38322;53.108;6.308;2023-12-20T08:30:44;13.40;;;2.25;;
52396;SDS011;38322;53.108;6.308;2023-12-20T08:33:10;10.40;;;2.53;;
52396;SDS011;38322;53.108;6.308;2023-12-20T08:35:39;9.15;;;3.20;;
52396;SDS011;38322;53.108;6.308;2023-12-20T08:38:05;15.85;;;2.65;;
52396;SDS011;38322;53.108;6.308;2023-12-20T08:40:31;20.58;;;3.00;;
52396;SDS011;38322;53.108;6.308;2023-12-20T08:42:57;19.17;;;3.45;;
52396;SDS011;38322;53.108;6.308;2023-12-20T08:45:23;19.75;;;4.43;;
52396;SDS011;38322;53.108;6.308;2023-12-20T08:47:49;24.38;;;3.90;;
52396;SDS011;38322;53.108;6.308;2023-12-20T08:50:15;30.80;;;5.50;;
52396;SDS011;38322;53.108;6.308;2023-12-20T08:52:41;31.77;;;7.68;;
52396;SDS011;38322;53.108;6.308;2023-12-20T08:55:07;34.10;;;7.45;;
52396;SDS011;38322;53.108;6.308;2023-12-20T08:57:35;23.38;;;4.18;;
52396;SDS011;38322;53.108;6.308;2023-12-20T09:00:02;24.27;;;4.43;;
52396;SDS011;38322;53.108;6.308;2023-12-20T09:02:28;27.08;;;5.65;;
52396;SDS011;38322;53.108;6.308;2023-12-20T09:04:54;24.38;;;4.43;;
52396;SDS011;38322;53.108;6.308;2023-12-20T09:07:22;25.25;;;5.18;;
52396;SDS011;38322;53.108;6.308;2023-12-20T09:09:56;21.92;;;5.45;;
52396;SDS011;38322;53.108;6.308;2023-12-20T09:12:22;18.85;;;2.80;;
52396;SDS011;38322;53.108;6.308;2023-12-20T09:14:48;6.28;;;2.03;;
52396;SDS011;38322;53.108;6.308;2023-12-20T09:17:16;7.28;;;1.25;;
52396;SDS011;38322;53.108;6.308;2023-12-20T09:19:43;10.48;;;1.35;;
52396;SDS011;38322;53.108;6.308;2023-12-20T09:22:09;10.25;;;0.85;;
52396;SDS011;38322;53.108;6.308;2023-12-20T09:24:35;8.38;;;0.40;;
52396;SDS011;38322;53.108;6.308;2023-12-20T09:27:01;6.93;;;0.93;;
52396;SDS011;38322;53.108;6.308;2023-12-20T09:29:28;8.23;;;2.15;;
52396;SDS011;38322;53.108;6.308;2023-12-20T09:31:54;13.27;;;0.80;;
52396;SDS011;38322;53.108;6.308;2023-12-20T09:34:20;13.68;;;1.13;;
52396;SDS011;38322;53.108;6.308;2023-12-20T09:36:47;5.53;;;0.82;;
52396;SDS011;38322;53.108;6.308;2023-12-20T09:39:14;5.43;;;1.17;;
52396;SDS011;38322;53.108;6.308;2023-12-20T09:44:14;9.27;;;2.50;;
52396;SDS011;38322;53.108;6.308;2023-12-20T09:46:43;8.38;;;1.30;;
52396;SDS011;38322;53.108;6.308;2023-12-20T09:49:10;6.72;;;1.52;;
52396;SDS011;38322;53.108;6.308;2023-12-20T09:51:37;6.63;;;1.25;;
52396;SDS011;38322;53.108;6.308;2023-12-20T09:54:04;7.53;;;2.35;;
52396;SDS011;38322;53.108;6.308;2023-12-20T09:56:30;6.18;;;0.95;;
52396;SDS011;38322;53.108;6.308;2023-12-20T09:58:57;11.65;;;1.83;;
52396;SDS011;38322;53.108;6.308;2023-12-20T10:01:24;5.55;;;1.80;;
52396;SDS011;38322;53.108;6.308;2023-12-20T10:03:51;7.75;;;2.00;;
52396;SDS011;38322;53.108;6.308;2023-12-20T10:06:20;17.25;;;1.77;;
52396;SDS011;38322;53.108;6.308;2023-12-20T10:08:47;15.30;;;2.38;;
52396;SDS011;38322;53.108;6.308;2023-12-20T10:11:13;7.10;;;1.67;;
52396;SDS011;38322;53.108;6.308;2023-12-20T10:13:40;7.15;;;0.93;;
52396;SDS011;38322;53.108;6.308;2023-12-20T10:16:06;11.45;;;1.52;;
52396;SDS011;38322;53.108;6.308;2023-12-20T10:18:32;18.17;;;1.50;;
52396;SDS011;38322;53.108;6.308;2023-12-20T10:20:59;6.18;;;0.93;;
52396;SDS011;38322;53.108;6.308;2023-12-20T10:23:25;14.35;;;2.50;;
52396;SDS011;38322;53.108;6.308;2023-12-20T10:25:56;14.75;;;1.45;;
52396;SDS011;38322;53.108;6.308;2023-12-20T10:28:24;16.58;;;1.80;;
52396;SDS011;38322;53.108;6.308;2023-12-20T10:30:53;17.80;;;1.75;;
52396;SDS011;38322;53.108;6.308;2023-12-20T10:33:25;13.52;;;3.88;;
52396;SDS011;38322;53.108;6.308;2023-12-20T10:35:54;12.60;;;1.55;;
52396;SDS011;38322;53.108;6.308;2023-12-20T10:38:20;11.25;;;2.15;;
52396;SDS011;38322;53.108;6.308;2023-12-20T10:40:47;13.25;;;2.42;;
52396;SDS011;38322;53.108;6.308;2023-12-20T10:43:14;6.72;;;1.67;;
52396;SDS011;38322;53.108;6.308;2023-12-20T10:45:41;10.57;;;2.00;;
52396;SDS011;38322;53.108;6.308;2023-12-20T10:48:09;11.15;;;1.67;;
52396;SDS011;38322;53.108;6.308;2023-12-20T10:50:37;10.73;;;2.28;;
52396;SDS011;38322;53.108;6.308;2023-12-20T10:53:03;9.45;;;0.90;;
52396;SDS011;38322;53.108;6.308;2023-12-20T10:55:29;10.35;;;2.00;;
52396;SDS011;38322;53.108;6.308;2023-12-20T10:57:59;12.45;;;1.33;;
52396;SDS011;38322;53.108;6.308;2023-12-20T11:00:26;5.13;;;1.20;;
52396;SDS011;38322;53.108;6.308;2023-12-20T11:02:55;9.38;;;2.22;;
52396;SDS011;38322;53.108;6.308;2023-12-20T11:08:19;16.65;;;3.05;;
52396;SDS011;38322;53.108;6.308;2023-12-20T11:11:04;7.55;;;1.83;;
52396;SDS011;38322;53.108;6.308;2023-12-20T11:13:37;14.90;;;2.22;;
52396;SDS011;38322;53.108;6.308;2023-12-20T11:16:09;9.18;;;2.13;;
52396;SDS011;38322;53.108;6.308;2023-12-20T11:18:35;10.18;;;1.92;;
52396;SDS011;38322;53.108;6.308;2023-12-20T11:21:04;8.43;;;1.10;;
52396;SDS011;38322;53.108;6.308;2023-12-20T11:23:31;9.30;;;1.63;;
52396;SDS011;38322;53.108;6.308;2023-12-20T11:25:59;14.18;;;1.95;;
52396;SDS011;38322;53.108;6.308;2023-12-20T11:28:26;10.55;;;1.55;;
52396;SDS011;38322;53.108;6.308;2023-12-20T11:30:53;13.25;;;1.33;;
52396;SDS011;38322;53.108;6.308;2023-12-20T11:33:24;14.38;;;2.22;;
52396;SDS011;38322;53.108;6.308;2023-12-20T11:35:51;12.70;;;4.10;;
52396;SDS011;38322;53.108;6.308;2023-12-20T11:38:20;11.98;;;1.77;;
52396;SDS011;38322;53.108;6.308;2023-12-20T11:40:48;14.95;;;4.07;;
52396;SDS011;38322;53.108;6.308;2023-12-20T11:46:03;7.78;;;1.88;;
52396;SDS011;38322;53.108;6.308;2023-12-20T11:48:31;8.43;;;1.67;;
52396;SDS011;38322;53.108;6.308;2023-12-20T11:50:57;11.55;;;2.22;;
52396;SDS011;38322;53.108;6.308;2023-12-20T11:53:24;16.85;;;3.17;;
52396;SDS011;38322;53.108;6.308;2023-12-20T11:55:50;10.35;;;1.30;;
52396;SDS011;38322;53.108;6.308;2023-12-20T11:58:16;11.20;;;1.88;;
52396;SDS011;38322;53.108;6.308;2023-12-20T12:00:42;21.10;;;2.03;;
52396;SDS011;38322;53.108;6.308;2023-12-20T12:03:09;13.23;;;2.05;;
52396;SDS011;38322;53.108;6.308;2023-12-20T12:05:35;8.48;;;1.77;;
52396;SDS011;38322;53.108;6.308;2023-12-20T12:08:01;19.73;;;2.22;;
52396;SDS011;38322;53.108;6.308;2023-12-20T12:10:28;12.85;;;2.53;;
52396;SDS011;38322;53.108;6.308;2023-12-20T12:12:56;10.95;;;2.00;;
52396;SDS011;38322;53.108;6.308;2023-12-20T12:15:22;10.57;;;1.83;;
52396;SDS011;38322;53.108;6.308;2023-12-20T12:17:54;11.48;;;2.58;;
52396;SDS011;38322;53.108;6.308;2023-12-20T12:20:22;16.23;;;2.50;;
52396;SDS011;38322;53.108;6.308;2023-12-20T12:23:00;16.02;;;3.10;;
52396;SDS011;38322;53.108;6.308;2023-12-20T12:25:26;12.98;;;1.67;;
52396;SDS011;38322;53.108;6.308;2023-12-20T12:27:55;10.15;;;2.30;;
52396;SDS011;38322;53.108;6.308;2023-12-20T12:30:22;14.68;;;2.28;;
52396;SDS011;38322;53.108;6.308;2023-12-20T12:32:47;11.85;;;1.83;;
52396;SDS011;38322;53.108;6.308;2023-12-20T12:35:13;16.73;;;2.75;;
52396;SDS011;38322;53.108;6.308;2023-12-20T12:37:40;14.35;;;2.60;;
52396;SDS011;38322;53.108;6.308;2023-12-20T12:40:07;13.30;;;2.53;;
52396;SDS011;38322;53.108;6.308;2023-12-20T12:42:40;12.88;;;2.05;;
52396;SDS011;38322;53.108;6.308;2023-12-20T12:45:07;19.13;;;3.08;;
52396;SDS011;38322;53.108;6.308;2023-12-20T12:47:33;11.30;;;3.65;;
52396;SDS011;38322;53.108;6.308;2023-12-20T12:50:00;24.13;;;4.25;;
52396;SDS011;38322;53.108;6.308;2023-12-20T12:52:25;11.65;;;3.05;;
52396;SDS011;38322;53.108;6.308;2023-12-20T12:54:52;18.10;;;3.40;;
52396;SDS011;38322;53.108;6.308;2023-12-20T12:57:19;19.88;;;3.08;;
52396;SDS011;38322;53.108;6.308;2023-12-20T12:59:45;13.00;;;1.45;;
52396;SDS011;38322;53.108;6.308;2023-12-20T13:02:13;10.82;;;2.45;;
52396;SDS011;38322;53.108;6.308;2023-12-20T13:04:40;9.85;;;1.45;;
52396;SDS011;38322;53.108;6.308;2023-12-20T13:07:07;13.38;;;1.77;;
52396;SDS011;38322;53.108;6.308;2023-12-20T13:09:35;12.70;;;2.40;;
52396;SDS011;38322;53.108;6.308;2023-12-20T13:12:01;10.00;;;1.20;;
52396;SDS011;38322;53.108;6.308;2023-12-20T13:14:29;8.45;;;2.90;;
52396;SDS011;38322;53.108;6.308;2023-12-20T13:16:58;7.50;;;1.08;;
52396;SDS011;38322;53.108;6.308;2023-12-20T13:19:24;8.73;;;1.77;;
52396;SDS011;38322;53.108;6.308;2023-12-20T13:21:50;11.38;;;1.35;;
52396;SDS011;38322;53.108;6.308;2023-12-20T13:24:15;8.95;;;2.38;;
52396;SDS011;38322;53.108;6.308;2023-12-20T13:26:41;12.05;;;2.35;;
52396;SDS011;38322;53.108;6.308;2023-12-20T13:29:07;12.43;;;1.85;;
52396;SDS011;38322;53.108;6.308;2023-12-20T13:31:33;19.65;;;2.75;;
52396;SDS011;38322;53.108;6.308;2023-12-20T13:34:01;7.47;;;1.63;;
52396;SDS011;38322;53.108;6.308;2023-12-20T13:36:27;11.27;;;1.77;;
52396;SDS011;38322;53.108;6.308;2023-12-20T13:38:53;13.63;;;1.73;;
52396;SDS011;38322;53.108;6.308;2023-12-20T13:41:19;6.78;;;0.88;;
52396;SDS011;38322;53.108;6.308;2023-12-20T13:43:45;6.88;;;1.20;;
52396;SDS011;38322;53.108;6.308;2023-12-20T13:46:11;8.80;;;2.05;;
52396;SDS011;38322;53.108;6.308;2023-12-20T13:48:39;4.28;;;1.10;;
52396;SDS011;38322;53.108;6.308;2023-12-20T13:51:05;12.30;;;1.40;;
52396;SDS011;38322;53.108;6.308;2023-12-20T13:53:31;10.70;;;0.82;;
52396;SDS011;38322;53.108;6.308;2023-12-20T13:55:57;6.68;;;0.82;;
52396;SDS011;38322;53.108;6.308;2023-12-20T13:58:25;6.65;;;2.67;;
52396;SDS011;38322;53.108;6.308;2023-12-20T14:00:51;6.50;;;0.75;;
52396;SDS011;38322;53.108;6.308;2023-12-20T14:03:17;11.32;;;1.63;;
52396;SDS011;38322;53.108;6.308;2023-12-20T14:05:45;12.30;;;1.00;;
52396;SDS011;38322;53.108;6.308;2023-12-20T14:08:11;5.78;;;1.58;;
52396;SDS011;38322;53.108;6.308;2023-12-20T14:10:36;5.32;;;0.77;;
52396;SDS011;38322;53.108;6.308;2023-12-20T14:13:04;7.18;;;1.85;;
52396;SDS011;38322;53.108;6.308;2023-12-20T14:15:30;4.97;;;1.25;;
52396;SDS011;38322;53.108;6.308;2023-12-20T14:18:03;5.93;;;1.13;;
52396;SDS011;38322;53.108;6.308;2023-12-20T14:20:31;9.35;;;0.68;;
52396;SDS011;38322;53.108;6.308;2023-12-20T14:23:00;3.90;;;0.65;;
52396;SDS011;38322;53.108;6.308;2023-12-20T14:25:26;8.55;;;0.88;;
52396;SDS011;38322;53.108;6.308;2023-12-20T14:27:52;4.88;;;0.70;;
52396;SDS011;38322;53.108;6.308;2023-12-20T14:30:18;8.68;;;1.35;;
52396;SDS011;38322;53.108;6.308;2023-12-20T14:32:45;9.55;;;1.20;;
52396;SDS011;38322;53.108;6.308;2023-12-20T14:35:13;5.85;;;0.95;;
52396;SDS011;38322;53.108;6.308;2023-12-20T14:37:39;12.40;;;2.40;;
52396;SDS011;38322;53.108;6.308;2023-12-20T14:40:07;7.20;;;0.80;;
52396;SDS011;38322;53.108;6.308;2023-12-20T14:42:40;3.20;;;0.80;;
52396;SDS011;38322;53.108;6.308;2023-12-20T14:45:06;7.93;;;1.20;;
52396;SDS011;38322;53.108;6.308;2023-12-20T14:47:33;6.65;;;1.65;;
52396;SDS011;38322;53.108;6.308;2023-12-20T14:49:59;11.20;;;2.97;;
52396;SDS011;38322;53.108;6.308;2023-12-20T14:52:24;15.20;;;1.42;;
52396;SDS011;38322;53.108;6.308;2023-12-20T14:54:50;9.15;;;1.08;;
52396;SDS011;38322;53.108;6.308;2023-12-20T14:57:16;9.48;;;1.05;;
52396;SDS011;38322;53.108;6.308;2023-12-20T14:59:43;8.23;;;1.27;;
52396;SDS011;38322;53.108;6.308;2023-12-20T15:02:08;11.07;;;1.55;;
52396;SDS011;38322;53.108;6.308;2023-12-20T15:04:34;6.88;;;1.23;;
52396;SDS011;38322;53.108;6.308;2023-12-20T15:07:00;7.60;;;0.80;;
52396;SDS011;38322;53.108;6.308;2023-12-20T15:09:26;14.40;;;2.15;;
52396;SDS011;38322;53.108;6.308;2023-12-20T15:11:54;7.80;;;1.00;;
52396;SDS011;38322;53.108;6.308;2023-12-20T15:14:20;11.18;;;0.80;;
52396;SDS011;38322;53.108;6.308;2023-12-20T15:16:46;10.23;;;0.95;;
52396;SDS011;38322;53.108;6.308;2023-12-20T15:19:12;10.02;;;1.00;;
52396;SDS011;38322;53.108;6.308;2023-12-20T15:21:39;12.18;;;1.38;;
52396;SDS011;38322;53.108;6.308;2023-12-20T15:24:08;9.57;;;1.33;;
52396;SDS011;38322;53.108;6.308;2023-12-20T15:26:42;14.57;;;1.27;;
52396;SDS011;38322;53.108;6.308;2023-12-20T15:29:09;15.40;;;3.20;;
52396;SDS011;38322;53.108;6.308;2023-12-20T15:31:37;14.88;;;1.92;;
52396;SDS011;38322;53.108;6.308;2023-12-20T15:34:08;12.98;;;2.30;;
52396;SDS011;38322;53.108;6.308;2023-12-20T15:36:34;11.95;;;2.05;;
52396;SDS011;38322;53.108;6.308;2023-12-20T15:39:00;16.27;;;2.28;;
52396;SDS011;38322;53.108;6.308;2023-12-20T15:41:25;14.68;;;1.83;;
52396;SDS011;38322;53.108;6.308;2023-12-20T15:43:51;19.92;;;2.75;;
52396;SDS011;38322;53.108;6.308;2023-12-20T15:46:17;19.98;;;3.65;;
52396;SDS011;38322;53.108;6.308;2023-12-20T15:48:43;15.50;;;3.72;;
52396;SDS011;38322;53.108;6.308;2023-12-20T15:51:09;11.05;;;2.90;;
52396;SDS011;38322;53.108;6.308;2023-12-20T15:53:35;23.85;;;3.67;;
52396;SDS011;38322;53.108;6.308;2023-12-20T15:56:02;22.17;;;3.30;;
52396;SDS011;38322;53.108;6.308;2023-12-20T15:58:29;13.90;;;4.20;;
52396;SDS011;38322;53.108;6.308;2023-12-20T16:00:56;19.38;;;3.13;;
52396;SDS011;38322;53.108;6.308;2023-12-20T16:03:22;18.45;;;4.00;;
52396;SDS011;38322;53.108;6.308;2023-12-20T16:05:48;18.65;;;4.00;;
52396;SDS011;38322;53.108;6.308;2023-12-20T16:08:14;14.52;;;2.17;;
52396;SDS011;38322;53.108;6.308;2023-12-20T16:10:40;17.77;;;4.07;;
52396;SDS011;38322;53.108;6.308;2023-12-20T16:13:06;14.65;;;3.30;;
52396;SDS011;38322;53.108;6.308;2023-12-20T16:15:32;28.30;;;4.07;;
52396;SDS011;38322;53.108;6.308;2023-12-20T16:17:58;14.50;;;2.72;;
52396;SDS011;38322;53.108;6.308;2023-12-20T16:20:24;15.13;;;2.90;;
52396;SDS011;38322;53.108;6.308;2023-12-20T16:22:50;17.20;;;3.92;;
52396;SDS011;38322;53.108;6.308;2023-12-20T16:25:17;15.13;;;2.95;;
52396;SDS011;38322;53.108;6.308;2023-12-20T16:27:43;15.10;;;3.50;;
52396;SDS011;38322;53.108;6.308;2023-12-20T16:30:09;13.93;;;2.10;;
52396;SDS011;38322;53.108;6.308;2023-12-20T16:32:35;18.48;;;3.22;;
52396;SDS011;38322;53.108;6.308;2023-12-20T16:35:01;19.55;;;3.53;;
52396;SDS011;38322;53.108;6.308;2023-12-20T16:37:27;15.40;;;2.80;;
52396;SDS011;38322;53.108;6.308;2023-12-20T16:39:54;11.65;;;2.75;;
52396;SDS011;38322;53.108;6.308;2023-12-20T16:42:20;16.38;;;3.13;;
52396;SDS011;38322;53.108;6.308;2023-12-20T16:44:46;15.20;;;2.35;;
52396;SDS011;38322;53.108;6.308;2023-12-20T16:47:11;13.73;;;2.30;;
52396;SDS011;38322;53.108;6.308;2023-12-20T16:49:37;10.45;;;2.45;;
52396;SDS011;38322;53.108;6.308;2023-12-20T16:52:03;16.95;;;3.65;;
52396;SDS011;38322;53.108;6.308;2023-12-20T16:54:29;19.25;;;2.83;;
52396;SDS011;38322;53.108;6.308;2023-12-20T16:56:56;15.23;;;3.90;;
52396;SDS011;38322;53.108;6.308;2023-12-20T16:59:21;21.70;;;3.25;;
52396;SDS011;38322;53.108;6.308;2023-12-20T17:01:47;17.63;;;2.97;;
52396;SDS011;38322;53.108;6.308;2023-12-20T17:04:14;20.00;;;5.38;;
52396;SDS011;38322;53.108;6.308;2023-12-20T17:06:40;17.88;;;4.72;;
52396;SDS011;38322;53.108;6.308;2023-12-20T17:09:06;23.60;;;5.07;;
52396;SDS011;38322;53.108;6.308;2023-12-20T17:11:33;19.83;;;2.50;;
52396;SDS011;38322;53.108;6.308;2023-12-20T17:14:00;23.27;;;4.97;;
52396;SDS011;38322;53.108;6.308;2023-12-20T17:16:26;17.33;;;3.20;;
52396;SDS011;38322;53.108;6.308;2023-12-20T17:18:52;16.27;;;2.83;;
52396;SDS011;38322;53.108;6.308;2023-12-20T17:21:18;17.05;;;2.78;;
52396;SDS011;38322;53.108;6.308;2023-12-20T17:23:45;12.77;;;3.33;;
52396;SDS011;38322;53.108;6.308;2023-12-20T17:26:12;20.48;;;3.05;;
52396;SDS011;38322;53.108;6.308;2023-12-20T17:28:38;16.38;;;3.38;;
52396;SDS011;38322;53.108;6.308;2023-12-20T17:31:04;17.77;;;3.75;;
52396;SDS011;38322;53.108;6.308;2023-12-20T17:33:31;14.10;;;2.60;;
52396;SDS011;38322;53.108;6.308;2023-12-20T17:35:57;12.25;;;3.92;;
52396;SDS011;38322;53.108;6.308;2023-12-20T17:38:24;13.75;;;2.58;;
52396;SDS011;38322;53.108;6.308;2023-12-20T17:40:50;18.92;;;5.00;;
52396;SDS011;38322;53.108;6.308;2023-12-20T17:43:16;11.85;;;2.85;;
52396;SDS011;38322;53.108;6.308;2023-12-20T17:45:42;8.27;;;2.10;;
52396;SDS011;38322;53.108;6.308;2023-12-20T17:48:08;10.38;;;2.45;;
52396;SDS011;38322;53.108;6.308;2023-12-20T17:50:34;9.00;;;1.40;;
52396;SDS011;38322;53.108;6.308;2023-12-20T17:52:59;5.85;;;1.67;;
52396;SDS011;38322;53.108;6.308;2023-12-20T17:55:25;5.68;;;2.20;;
52396;SDS011;38322;53.108;6.308;2023-12-20T17:57:51;9.85;;;2.70;;
52396;SDS011;38322;53.108;6.308;2023-12-20T18:00:19;4.95;;;1.13;;
52396;SDS011;38322;53.108;6.308;2023-12-20T18:02:46;5.75;;;1.17;;
52396;SDS011;38322;53.108;6.308;2023-12-20T18:05:12;10.80;;;2.22;;
52396;SDS011;38322;53.108;6.308;2023-12-20T18:07:38;3.55;;;1.17;;
52396;SDS011;38322;53.108;6.308;2023-12-20T18:10:07;6.68;;;2.35;;
52396;SDS011;38322;53.108;6.308;2023-12-20T18:12:33;4.35;;;1.20;;
52396;SDS011;38322;53.108;6.308;2023-12-20T18:14:59;3.53;;;0.95;;
52396;SDS011;38322;53.108;6.308;2023-12-20T18:17:26;3.40;;;1.15;;
52396;SDS011;38322;53.108;6.308;2023-12-20T18:19:52;2.80;;;1.42;;
52396;SDS011;38322;53.108;6.308;2023-12-20T18:22:18;2.85;;;1.17;;
52396;SDS011;38322;53.108;6.308;2023-12-20T18:24:44;4.97;;;1.63;;
52396;SDS011;38322;53.108;6.308;2023-12-20T18:27:10;5.07;;;1.20;;
52396;SDS011;38322;53.108;6.308;2023-12-20T18:29:36;3.00;;;2.03;;
52396;SDS011;38322;53.108;6.308;2023-12-20T18:32:02;2.40;;;2.00;;
52396;SDS011;38322;53.108;6.308;2023-12-20T18:34:28;2.85;;;0.85;;
52396;SDS011;38322;53.108;6.308;2023-12-20T18:36:54;3.88;;;1.20;;
52396;SDS011;38322;53.108;6.308;2023-12-20T18:39:20;4.18;;;1.92;;
52396;SDS011;38322;53.108;6.308;2023-12-20T18:41:46;2.65;;;0.85;;
52396;SDS011;38322;53.108;6.308;2023-12-20T18:44:14;3.22;;;1.45;;
52396;SDS011;38322;53.108;6.308;2023-12-20T18:46:40;3.05;;;1.60;;
52396;SDS011;38322;53.108;6.308;2023-12-20T18:49:09;5.35;;;1.33;;
52396;SDS011;38322;53.108;6.308;2023-12-20T18:51:35;5.90;;;1.05;;
52396;SDS011;38322;53.108;6.308;2023-12-20T18:54:01;5.80;;;2.08;;
52396;SDS011;38322;53.108;6.308;2023-12-20T18:56:28;4.10;;;1.42;;
52396;SDS011;38322;53.108;6.308;2023-12-20T18:58:54;6.10;;;1.63;;
52396;SDS011;38322;53.108;6.308;2023-12-20T19:01:20;5.78;;;2.17;;
52396;SDS011;38322;53.108;6.308;2023-12-20T19:03:46;4.45;;;1.35;;
52396;SDS011;38322;53.108;6.308;2023-12-20T19:06:12;6.00;;;2.38;;
52396;SDS011;38322;53.108;6.308;2023-12-20T19:08:38;5.57;;;2.13;;
52396;SDS011;38322;53.108;6.308;2023-12-20T19:11:05;7.40;;;1.70;;
52396;SDS011;38322;53.108;6.308;2023-12-20T19:13:31;5.32;;;1.42;;
52396;SDS011;38322;53.108;6.308;2023-12-20T19:15:57;7.60;;;2.05;;
52396;SDS011;38322;53.108;6.308;2023-12-20T19:18:24;3.38;;;1.25;;
52396;SDS011;38322;53.108;6.308;2023-12-20T19:20:51;9.07;;;2.25;;
52396;SDS011;38322;53.108;6.308;2023-12-20T19:23:19;5.70;;;2.10;;
52396;SDS011;38322;53.108;6.308;2023-12-20T19:25:45;4.70;;;1.20;;
52396;SDS011;38322;53.108;6.308;2023-12-20T19:28:11;6.20;;;1.38;;
52396;SDS011;38322;53.108;6.308;2023-12-20T19:30:37;4.30;;;1.33;;
52396;SDS011;38322;53.108;6.308;2023-12-20T19:33:03;12.98;;;2.55;;
52396;SDS011;38322;53.108;6.308;2023-12-20T19:35:30;5.45;;;1.52;;
52396;SDS011;38322;53.108;6.308;2023-12-20T19:37:56;6.28;;;2.38;;
52396;SDS011;38322;53.108;6.308;2023-12-20T19:40:22;7.65;;;2.08;;
52396;SDS011;38322;53.108;6.308;2023-12-20T19:42:48;8.30;;;2.97;;
52396;SDS011;38322;53.108;6.308;2023-12-20T19:45:14;7.78;;;3.40;;
52396;SDS011;38322;53.108;6.308;2023-12-20T19:47:48;7.68;;;2.05;;
52396;SDS011;38322;53.108;6.308;2023-12-20T19:50:14;4.90;;;2.17;;
52396;SDS011;38322;53.108;6.308;2023-12-20T19:52:41;8.80;;;1.65;;
52396;SDS011;38322;53.108;6.308;2023-12-20T19:55:07;6.65;;;1.20;;
52396;SDS011;38322;53.108;6.308;2023-12-20T19:57:33;3.22;;;0.98;;
52396;SDS011;38322;53.108;6.308;2023-12-20T19:59:59;6.18;;;1.90;;
52396;SDS011;38322;53.108;6.308;2023-12-20T20:02:25;3.15;;;1.10;;
52396;SDS011;38322;53.108;6.308;2023-12-20T20:04:51;7.45;;;1.45;;
52396;SDS011;38322;53.108;6.308;2023-12-20T20:07:17;8.90;;;1.77;;
52396;SDS011;38322;53.108;6.308;2023-12-20T20:09:46;3.15;;;1.50;;
52396;SDS011;38322;53.108;6.308;2023-12-20T20:12:11;3.42;;;1.10;;
52396;SDS011;38322;53.108;6.308;2023-12-20T20:14:37;8.35;;;1.63;;
52396;SDS011;38322;53.108;6.308;2023-12-20T20:17:04;5.68;;;1.55;;
52396;SDS011;38322;53.108;6.308;2023-12-20T20:19:31;6.32;;;1.67;;
52396;SDS011;38322;53.108;6.308;2023-12-20T20:21:57;5.78;;;1.85;;
52396;SDS011;38322;53.108;6.308;2023-12-20T20:24:23;10.85;;;1.60;;
52396;SDS011;38322;53.108;6.308;2023-12-20T20:26:49;7.00;;;1.50;;
52396;SDS011;38322;53.108;6.308;2023-12-20T20:29:16;8.63;;;1.30;;
52396;SDS011;38322;53.108;6.308;2023-12-20T20:31:42;9.75;;;1.85;;
52396;SDS011;38322;53.108;6.308;2023-12-20T20:34:08;12.25;;;2.45;;
52396;SDS011;38322;53.108;6.308;2023-12-20T20:36:34;6.50;;;1.65;;
52396;SDS011;38322;53.108;6.308;2023-12-20T20:39:00;7.80;;;2.17;;
52396;SDS011;38322;53.108;6.308;2023-12-20T20:41:26;9.90;;;1.75;;
52396;SDS011;38322;53.108;6.308;2023-12-20T20:43:52;11.25;;;2.40;;
52396;SDS011;38322;53.108;6.308;2023-12-20T20:46:17;10.32;;;3.47;;